createdAt,value
2023-09-30T00:01:11.714Z,-64
2023-09-30T00:03:40.305Z,-64
2023-09-30T00:06:08.617Z,-64
2023-09-30T00:08:37.376Z,-64
2023-09-30T00:11:07.948Z,-64
2023-09-30T00:13:36.257Z,-64
2023-09-30T00:16:04.545Z,-64
2023-09-30T00:18:34.104Z,-63
2023-09-30T00:21:02.257Z,-64
2023-09-30T00:23:30.477Z,-64
2023-09-30T00:25:58.716Z,-64
2023-09-30T00:28:26.875Z,-64
2023-09-30T00:30:55.084Z,-64
2023-09-30T00:33:24.066Z,-64
2023-09-30T00:35:53.589Z,-63
2023-09-30T00:38:23.938Z,-63
2023-09-30T00:40:52.334Z,-65
2023-09-30T00:43:21.481Z,-63
2023-09-30T00:45:51.256Z,-63
2023-09-30T00:48:19.991Z,-63
2023-09-30T00:50:48.475Z,-64
2023-09-30T00:53:18.100Z,-64
2023-09-30T00:55:46.768Z,-64
2023-09-30T00:58:15.344Z,-63
2023-09-30T01:00:43.682Z,-65
2023-09-30T01:03:13.321Z,-64
2023-09-30T01:05:41.700Z,-64
2023-09-30T01:08:09.906Z,-63
2023-09-30T01:10:39.489Z,-63
2023-09-30T01:13:07.605Z,-64
2023-09-30T01:15:35.819Z,-65
2023-09-30T01:18:07.463Z,-64
2023-09-30T01:20:36.034Z,-64
2023-09-30T01:23:05.934Z,-64
2023-09-30T01:25:34.772Z,-64
2023-09-30T01:28:07.700Z,-64
2023-09-30T01:30:36.186Z,-64
2023-09-30T01:33:04.847Z,-64
2023-09-30T01:35:33.048Z,-64
2023-09-30T01:38:01.196Z,-64
2023-09-30T01:40:30.760Z,-65
2023-09-30T01:42:59.066Z,-63
2023-09-30T01:45:27.282Z,-63
2023-09-30T01:47:55.449Z,-63
2023-09-30T01:50:23.685Z,-65
2023-09-30T01:52:51.809Z,-64
2023-09-30T01:55:20.150Z,-64
2023-09-30T01:57:49.716Z,-64
2023-09-30T02:00:18.494Z,-64
2023-09-30T02:02:47.178Z,-65
2023-09-30T02:05:15.498Z,-63
2023-09-30T02:07:44.347Z,-63
2023-09-30T02:10:12.808Z,-66
2023-09-30T02:12:41.075Z,-65
2023-09-30T02:15:12.693Z,-63
2023-09-30T02:17:40.960Z,-64
2023-09-30T02:20:14.377Z,-64
2023-09-30T02:22:42.923Z,-63
2023-09-30T02:25:13.547Z,-64
2023-09-30T02:27:44.048Z,-64
2023-09-30T02:30:15.237Z,-64
2023-09-30T02:32:47.174Z,-64
2023-09-30T02:35:16.429Z,-64
2023-09-30T02:37:45.322Z,-64
2023-09-30T02:40:16.028Z,-63
2023-09-30T02:42:44.342Z,-65
2023-09-30T02:45:18.500Z,-63
2023-09-30T02:47:46.776Z,-63
2023-09-30T02:50:15.152Z,-63
2023-09-30T02:52:43.577Z,-64
2023-09-30T02:55:13.389Z,-63
2023-09-30T02:57:41.802Z,-64
2023-09-30T03:00:24.574Z,-65
2023-09-30T03:02:54.641Z,-63
2023-09-30T03:05:24.347Z,-64
2023-09-30T03:07:52.836Z,-64
2023-09-30T03:10:24.746Z,-64
2023-09-30T03:12:53.421Z,-63
2023-09-30T03:15:23.329Z,-63
2023-09-30T03:17:53.725Z,-64
2023-09-30T03:20:22.820Z,-64
2023-09-30T03:22:51.061Z,-64
2023-09-30T03:25:21.646Z,-64
2023-09-30T03:27:51.133Z,-64
2023-09-30T03:30:21.283Z,-65
2023-09-30T03:32:51.262Z,-63
2023-09-30T03:35:19.651Z,-64
2023-09-30T03:37:49.218Z,-64
2023-09-30T03:40:20.637Z,-64
2023-09-30T03:42:51.505Z,-64
2023-09-30T03:45:20.622Z,-64
2023-09-30T03:47:51.907Z,-64
2023-09-30T03:50:20.140Z,-65
2023-09-30T03:52:49.048Z,-63
2023-09-30T03:55:21.209Z,-64
2023-09-30T03:57:52.367Z,-65
2023-09-30T04:00:22.264Z,-64
2023-09-30T04:02:55.631Z,-63
2023-09-30T04:05:27.817Z,-63
2023-09-30T04:07:56.347Z,-64
2023-09-30T04:10:24.890Z,-65
2023-09-30T04:12:53.683Z,-64
2023-09-30T04:15:22.321Z,-66
2023-09-30T04:17:52.716Z,-64
2023-09-30T04:20:24.635Z,-65
2023-09-30T04:22:58.300Z,-63
2023-09-30T04:25:28.060Z,-65
2023-09-30T04:27:56.621Z,-63
2023-09-30T04:30:25.161Z,-64
2023-09-30T04:32:55.446Z,-64
2023-09-30T04:35:24.091Z,-64
2023-09-30T04:37:52.594Z,-64
2023-09-30T04:40:22.082Z,-63
2023-09-30T04:42:51.110Z,-64
2023-09-30T04:45:21.234Z,-64
2023-09-30T04:47:51.276Z,-63
2023-09-30T04:50:23.258Z,-65
2023-09-30T04:52:52.382Z,-63
2023-09-30T04:55:21.220Z,-63
2023-09-30T04:57:50.314Z,-64
2023-09-30T05:00:25.883Z,-64
2023-09-30T05:02:54.996Z,-64
2023-09-30T05:05:25.025Z,-65
2023-09-30T05:07:53.476Z,-63
2023-09-30T05:10:21.955Z,-64
2023-09-30T05:12:50.117Z,-64
2023-09-30T05:15:20.650Z,-64
2023-09-30T05:17:50.467Z,-65
2023-09-30T05:20:19.629Z,-64
2023-09-30T05:22:50.085Z,-64
2023-09-30T05:25:19.751Z,-63
2023-09-30T05:27:49.952Z,-64
2023-09-30T05:30:20.467Z,-64
2023-09-30T05:32:49.429Z,-65
2023-09-30T05:35:18.528Z,-64
2023-09-30T05:37:48.601Z,-64
2023-09-30T05:40:24.025Z,-63
2023-09-30T05:42:54.333Z,-63
2023-09-30T05:45:25.846Z,-64
2023-09-30T05:47:55.032Z,-64
2023-09-30T05:50:27.534Z,-63
2023-09-30T05:52:58.086Z,-63
2023-09-30T05:55:27.762Z,-63
2023-09-30T05:57:57.100Z,-64
2023-09-30T06:00:30.400Z,-64
2023-09-30T06:03:00.208Z,-63
2023-09-30T06:05:31.522Z,-63
2023-09-30T06:08:05.624Z,-64
2023-09-30T06:10:33.872Z,-64
2023-09-30T06:13:03.345Z,-60
2023-09-30T06:15:33.052Z,-61
2023-09-30T06:18:01.960Z,-60
2023-09-30T06:20:31.988Z,-61
2023-09-30T06:23:02.553Z,-62
2023-09-30T06:25:31.662Z,-62
2023-09-30T06:28:00.014Z,-60
2023-09-30T06:30:31.463Z,-60
2023-09-30T06:33:01.741Z,-63
2023-09-30T06:35:31.340Z,-61
2023-09-30T06:38:02.258Z,-61
2023-09-30T06:40:30.494Z,-62
2023-09-30T06:42:59.052Z,-61
2023-09-30T06:45:27.704Z,-61
2023-09-30T06:47:56.737Z,-61
2023-09-30T06:50:25.060Z,-60
2023-09-30T06:52:53.437Z,-61
2023-09-30T06:55:23.230Z,-61
2023-09-30T06:57:52.156Z,-60
2023-09-30T07:00:20.430Z,-61
2023-09-30T07:02:48.676Z,-61
2023-09-30T07:05:18.760Z,-60
2023-09-30T07:07:46.994Z,-62
2023-09-30T07:10:15.410Z,-60
2023-09-30T07:12:45.106Z,-61
2023-09-30T07:15:14.869Z,-62
2023-09-30T07:17:45.825Z,-60
2023-09-30T07:20:14.400Z,-61
2023-09-30T07:22:55.701Z,-60
2023-09-30T07:25:27.670Z,-62
2023-09-30T07:27:57.215Z,-62
2023-09-30T07:30:25.928Z,-61
2023-09-30T07:32:54.178Z,-61
2023-09-30T07:35:22.537Z,-61
2023-09-30T07:37:54.134Z,-61
2023-09-30T07:40:23.251Z,-61
2023-09-30T07:42:52.507Z,-59
2023-09-30T07:45:22.395Z,-61
2023-09-30T07:47:52.150Z,-61
2023-09-30T07:50:20.437Z,-61
2023-09-30T07:52:48.636Z,-61
2023-09-30T07:55:16.988Z,-61
2023-09-30T07:57:47.464Z,-64
2023-09-30T08:00:22.574Z,-64
2023-09-30T08:02:52.373Z,-64
2023-09-30T08:05:20.740Z,-64
2023-09-30T08:07:48.928Z,-63
2023-09-30T08:10:18.003Z,-64
2023-09-30T08:12:49.697Z,-64
2023-09-30T08:15:18.601Z,-64
2023-09-30T08:17:46.907Z,-64
2023-09-30T08:20:16.535Z,-63
2023-09-30T08:22:45.264Z,-65
2023-09-30T08:25:13.568Z,-64
2023-09-30T08:27:42.799Z,-64
2023-09-30T08:30:11.771Z,-64
2023-09-30T08:32:40.520Z,-64
2023-09-30T08:35:10.913Z,-65
2023-09-30T08:37:40.617Z,-64
2023-09-30T08:40:10.992Z,-65
2023-09-30T08:42:42.459Z,-64
2023-09-30T08:45:16.606Z,-64
2023-09-30T08:47:45.261Z,-63
2023-09-30T08:50:15.047Z,-64
2023-09-30T08:52:47.362Z,-64
2023-09-30T08:55:15.638Z,-64
2023-09-30T08:57:44.863Z,-64
2023-09-30T09:00:15.849Z,-64
2023-09-30T09:02:45.123Z,-63
2023-09-30T09:05:13.540Z,-64
2023-09-30T09:07:43.899Z,-63
2023-09-30T09:10:15.265Z,-64
2023-09-30T09:12:45.415Z,-65
2023-09-30T09:15:28.009Z,-64
2023-09-30T09:17:56.987Z,-64
2023-09-30T09:20:27.081Z,-65
2023-09-30T09:22:59.212Z,-65
2023-09-30T09:25:29.662Z,-65
2023-09-30T09:27:58.101Z,-64
2023-09-30T09:30:28.136Z,-63
2023-09-30T09:33:04.397Z,-64
2023-09-30T09:35:34.690Z,-64
2023-09-30T09:38:05.599Z,-63
2023-09-30T09:40:37.267Z,-64
2023-09-30T09:43:07.226Z,-64
2023-09-30T09:45:39.226Z,-64
2023-09-30T09:48:08.913Z,-64
2023-09-30T09:50:39.295Z,-63
2023-09-30T09:53:08.190Z,-64
2023-09-30T09:55:40.690Z,-65
2023-09-30T09:58:11.752Z,-64
2023-09-30T10:00:41.119Z,-64
2023-09-30T10:03:09.905Z,-64
2023-09-30T10:05:41.287Z,-65
2023-09-30T10:08:14.910Z,-63
2023-09-30T10:10:46.529Z,-64
2023-09-30T10:13:58.114Z,-63
2023-09-30T10:16:51.269Z,-65
2023-09-30T10:19:23.601Z,-65
2023-09-30T10:22:26.751Z,-64
2023-09-30T10:24:57.298Z,-64
2023-09-30T10:27:38.643Z,-65
2023-09-30T10:30:14.548Z,-65
2023-09-30T10:33:17.057Z,-65
2023-09-30T10:35:50.492Z,-64
2023-09-30T10:38:44.763Z,-65
2023-09-30T10:41:33.181Z,-64
2023-09-30T10:44:35.465Z,-64
2023-09-30T10:47:39.542Z,-64
2023-09-30T10:50:53.178Z,-64
2023-09-30T10:53:21.776Z,-64
2023-09-30T10:55:58.516Z,-64
2023-09-30T10:58:42.410Z,-65
2023-09-30T11:01:12.252Z,-64
2023-09-30T11:03:40.724Z,-64
2023-09-30T11:06:12.784Z,-64
2023-09-30T11:08:47.663Z,-68
2023-09-30T11:11:16.461Z,-63
2023-09-30T11:13:44.695Z,-64
2023-09-30T11:16:14.448Z,-64
2023-09-30T11:18:42.628Z,-63
2023-09-30T11:21:13.982Z,-64
2023-09-30T11:23:44.750Z,-64
2023-09-30T11:26:15.080Z,-64
2023-09-30T11:28:45.874Z,-64
2023-09-30T11:31:17.086Z,-65
2023-09-30T11:33:53.994Z,-65
2023-09-30T11:36:23.916Z,-64
2023-09-30T11:38:54.870Z,-64
2023-09-30T11:41:23.461Z,-64
2023-09-30T11:44:10.018Z,-64
2023-09-30T11:46:56.728Z,-64
2023-09-30T11:49:33.171Z,-63
2023-09-30T11:52:04.863Z,-64
2023-09-30T11:54:34.944Z,-64
2023-09-30T11:57:04.432Z,-63
2023-09-30T11:59:33.244Z,-64
2023-09-30T12:02:14.222Z,-64
2023-09-30T12:04:44.761Z,-63
2023-09-30T12:07:13.501Z,-64
2023-09-30T12:09:42.347Z,-63
2023-09-30T12:12:12.832Z,-64
2023-09-30T12:14:41.741Z,-64
2023-09-30T12:17:13.695Z,-63
2023-09-30T12:19:43.693Z,-64
2023-09-30T12:22:12.985Z,-64
2023-09-30T12:24:41.879Z,-65
2023-09-30T12:27:10.293Z,-64
2023-09-30T12:29:39.947Z,-64
2023-09-30T12:32:10.696Z,-65
2023-09-30T12:34:41.520Z,-64
2023-09-30T12:37:09.681Z,-65
2023-09-30T12:39:38.065Z,-64
2023-09-30T12:42:10.179Z,-64
2023-09-30T12:44:38.625Z,-64
2023-09-30T12:47:07.714Z,-64
2023-09-30T12:49:37.880Z,-64
2023-09-30T12:52:06.410Z,-64
2023-09-30T12:54:35.122Z,-63
2023-09-30T12:57:03.423Z,-63
2023-09-30T12:59:31.875Z,-63
2023-09-30T13:02:00.122Z,-64
2023-09-30T13:04:28.524Z,-63
2023-09-30T13:06:58.173Z,-64
2023-09-30T13:09:26.393Z,-64
2023-09-30T13:11:54.518Z,-64
2023-09-30T13:14:22.944Z,-63
2023-09-30T13:16:51.121Z,-65
2023-09-30T13:19:22.390Z,-64
2023-09-30T13:21:51.451Z,-64
2023-09-30T13:24:21.105Z,-64
2023-09-30T13:26:49.503Z,-63
2023-09-30T13:29:18.330Z,-63
2023-09-30T13:31:47.207Z,-63
2023-09-30T13:34:15.719Z,-64
2023-09-30T13:36:44.134Z,-64
2023-09-30T13:39:14.702Z,-64
2023-09-30T13:41:44.206Z,-64
2023-09-30T13:44:12.975Z,-64
2023-09-30T13:46:41.420Z,-63
2023-09-30T13:49:09.827Z,-65
2023-09-30T13:51:40.137Z,-63
2023-09-30T13:54:09.516Z,-64
2023-09-30T13:56:37.992Z,-64
2023-09-30T13:59:09.576Z,-65
2023-09-30T14:01:42.625Z,-65
2023-09-30T14:04:11.308Z,-64
2023-09-30T14:06:39.664Z,-63
2023-09-30T14:09:18.618Z,-64
2023-09-30T14:11:59.728Z,-63
2023-09-30T14:14:29.279Z,-65
2023-09-30T14:16:57.491Z,-64
2023-09-30T14:19:25.930Z,-64
2023-09-30T14:21:54.330Z,-62
2023-09-30T14:24:22.555Z,-64
2023-09-30T14:26:50.677Z,-63
2023-09-30T14:29:18.811Z,-65
2023-09-30T14:31:48.339Z,-63
2023-09-30T14:34:16.501Z,-64
2023-09-30T14:36:44.713Z,-64
2023-09-30T14:39:15.325Z,-64
2023-09-30T14:41:43.956Z,-64
2023-09-30T14:44:12.981Z,-63
2023-09-30T14:46:41.899Z,-64
2023-09-30T14:49:11.596Z,-63
2023-09-30T14:51:40.178Z,-64
2023-09-30T14:54:08.963Z,-64
2023-09-30T14:56:37.722Z,-64
2023-09-30T14:59:06.650Z,-65
2023-09-30T15:01:35.619Z,-64
2023-09-30T15:04:04.040Z,-64
2023-09-30T15:06:35.464Z,-63
2023-09-30T15:09:05.076Z,-64
2023-09-30T15:11:33.217Z,-64
2023-09-30T15:14:01.337Z,-64
2023-09-30T15:16:29.752Z,-64
2023-09-30T15:18:58.120Z,-63
2023-09-30T15:21:26.505Z,-64
2023-09-30T15:23:56.070Z,-64
2023-09-30T15:26:24.299Z,-64
2023-09-30T15:28:52.727Z,-64
2023-09-30T15:31:21.093Z,-64
2023-09-30T15:33:49.299Z,-64
2023-09-30T15:36:19.304Z,-65
2023-09-30T15:38:48.043Z,-65
2023-09-30T15:41:21.803Z,-65
2023-09-30T15:43:49.921Z,-65
2023-09-30T15:46:18.174Z,-64
2023-09-30T15:48:47.215Z,-64
2023-09-30T15:51:15.486Z,-63
2023-09-30T15:53:43.652Z,-64
2023-09-30T15:56:11.781Z,-63
2023-09-30T15:58:41.368Z,-64
2023-09-30T16:01:13.753Z,-65
2023-09-30T16:03:44.097Z,-64
2023-09-30T16:06:12.517Z,-66
2023-09-30T16:08:41.785Z,-65
2023-09-30T16:11:09.958Z,-64
2023-09-30T16:13:38.154Z,-63
2023-09-30T16:16:08.031Z,-63
2023-09-30T16:18:36.441Z,-63
2023-09-30T16:21:04.760Z,-64
2023-09-30T16:23:32.915Z,-64
2023-09-30T16:26:01.071Z,-65
2023-09-30T16:28:29.259Z,-65
2023-09-30T16:31:00.801Z,-64
2023-09-30T16:33:30.441Z,-64
2023-09-30T16:35:58.624Z,-64
2023-09-30T16:38:26.843Z,-62
2023-09-30T16:40:55.511Z,-62
2023-09-30T16:43:23.680Z,-62
2023-09-30T16:45:52.543Z,-61
2023-09-30T16:48:20.873Z,-61
2023-09-30T16:50:51.131Z,-60
2023-09-30T16:53:21.236Z,-61
2023-09-30T16:55:52.701Z,-63
2023-09-30T16:58:21.004Z,-61
2023-09-30T17:00:49.317Z,-62
2023-09-30T17:03:17.529Z,-61
2023-09-30T17:05:45.718Z,-61
2023-09-30T17:08:15.221Z,-62
2023-09-30T17:10:45.301Z,-62
2023-09-30T17:13:13.620Z,-62
2023-09-30T17:15:44.267Z,-61
2023-09-30T17:18:12.484Z,-61
2023-09-30T17:20:45.839Z,-62
2023-09-30T17:23:16.126Z,-61
2023-09-30T17:25:44.858Z,-62
2023-09-30T17:28:13.547Z,-61
2023-09-30T17:30:42.740Z,-61
2023-09-30T17:33:11.595Z,-62
2023-09-30T17:35:40.979Z,-62
2023-09-30T17:38:09.729Z,-60
2023-09-30T17:40:40.255Z,-62
2023-09-30T17:43:08.591Z,-61
2023-09-30T17:45:36.979Z,-61
2023-09-30T17:48:06.615Z,-61
2023-09-30T17:50:34.781Z,-62
2023-09-30T17:53:02.959Z,-62
2023-09-30T17:55:31.166Z,-62
2023-09-30T17:58:00.749Z,-61
2023-09-30T18:00:29.169Z,-62
2023-09-30T18:02:57.533Z,-61
2023-09-30T18:05:26.557Z,-62
2023-09-30T18:07:55.583Z,-61
2023-09-30T18:10:23.765Z,-62
2023-09-30T18:12:52.272Z,-62
2023-09-30T18:15:21.894Z,-61
2023-09-30T18:18:05.289Z,-61
2023-09-30T18:20:37.902Z,-61
2023-09-30T18:23:06.136Z,-61
2023-09-30T18:25:35.344Z,-61
2023-09-30T18:28:04.732Z,-60
2023-09-30T18:30:34.355Z,-62
2023-09-30T18:33:03.979Z,-61
2023-09-30T18:35:32.704Z,-63
2023-09-30T18:38:00.959Z,-60
2023-09-30T18:40:31.546Z,-61
2023-09-30T18:42:59.729Z,-65
2023-09-30T18:45:27.953Z,-64
2023-09-30T18:47:57.725Z,-64
2023-09-30T18:50:25.888Z,-64
2023-09-30T18:52:56.278Z,-64
2023-09-30T18:55:24.553Z,-65
2023-09-30T18:57:52.701Z,-65
2023-09-30T19:00:21.316Z,-64
2023-09-30T19:02:49.632Z,-66
2023-09-30T19:05:19.195Z,-65
2023-09-30T19:07:47.364Z,-65
2023-09-30T19:10:15.672Z,-66
2023-09-30T19:12:43.887Z,-66
2023-09-30T19:15:12.720Z,-65
2023-09-30T19:17:40.948Z,-64
2023-09-30T19:20:10.145Z,-63
2023-09-30T19:22:39.795Z,-63
2023-09-30T19:25:08.925Z,-62
2023-09-30T19:27:37.255Z,-62
2023-09-30T19:30:06.768Z,-63
2023-09-30T19:32:35.591Z,-62
2023-09-30T19:35:05.245Z,-62
2023-09-30T19:37:33.765Z,-62
2023-09-30T19:40:04.717Z,-61
2023-09-30T19:42:33.225Z,-63
2023-09-30T19:45:01.460Z,-62
2023-09-30T19:47:29.741Z,-62
2023-09-30T19:49:57.923Z,-66
2023-09-30T19:52:29.902Z,-66
2023-09-30T19:54:58.302Z,-67
2023-09-30T19:57:30.141Z,-67
2023-09-30T19:59:58.338Z,-68
2023-09-30T20:02:27.589Z,-63
2023-09-30T20:04:55.910Z,-63
2023-09-30T20:07:24.632Z,-63
2023-09-30T20:09:54.114Z,-62
2023-09-30T20:12:23.603Z,-62
2023-09-30T20:14:53.085Z,-64
2023-09-30T20:17:21.257Z,-66
2023-09-30T20:19:50.219Z,-65
2023-09-30T20:22:18.509Z,-66
2023-09-30T20:24:46.848Z,-65
2023-09-30T20:27:14.990Z,-66
2023-09-30T20:29:43.146Z,-65
2023-09-30T20:32:12.804Z,-64
2023-09-30T20:34:41.155Z,-64
2023-09-30T20:37:09.374Z,-63
2023-09-30T20:39:37.915Z,-63
2023-09-30T20:42:06.183Z,-64
2023-09-30T20:44:35.050Z,-64
2023-09-30T20:47:03.719Z,-62
2023-09-30T20:49:33.433Z,-62
2023-09-30T20:52:01.741Z,-63
2023-09-30T20:54:31.438Z,-63
2023-09-30T20:57:00.373Z,-63
2023-09-30T20:59:29.100Z,-64
2023-09-30T21:01:57.376Z,-65
2023-09-30T21:04:25.699Z,-65
2023-09-30T21:06:55.267Z,-64
2023-09-30T21:09:23.468Z,-65
2023-09-30T21:11:51.802Z,-64
2023-09-30T21:14:20.256Z,-64
2023-09-30T21:16:48.457Z,-64
2023-09-30T21:19:16.634Z,-64
2023-09-30T21:21:44.937Z,-63
2023-09-30T21:24:14.865Z,-64
2023-09-30T21:26:43.128Z,-64
2023-09-30T21:29:11.273Z,-62
2023-09-30T21:31:39.608Z,-63
2023-09-30T21:34:07.907Z,-64
2023-09-30T21:36:36.245Z,-62
2023-09-30T21:39:06.528Z,-60
2023-09-30T21:41:36.109Z,-62
2023-09-30T21:44:04.262Z,-63
2023-09-30T21:46:33.704Z,-62
2023-09-30T21:49:02.195Z,-61
2023-09-30T21:51:30.457Z,-64
2023-09-30T21:53:58.712Z,-62
2023-09-30T21:56:26.889Z,-62
2023-09-30T21:58:56.380Z,-61
2023-09-30T22:01:25.559Z,-63
2023-09-30T22:03:55.058Z,-60
2023-09-30T22:06:23.407Z,-64
2023-09-30T22:08:51.586Z,-63
2023-09-30T22:11:19.734Z,-64
2023-09-30T22:13:47.975Z,-62
2023-09-30T22:16:17.630Z,-64
2023-09-30T22:18:46.698Z,-63
2023-09-30T22:21:17.844Z,-65
2023-09-30T22:23:46.372Z,-65
2023-09-30T22:26:14.513Z,-65
2023-09-30T22:28:42.659Z,-63
2023-09-30T22:31:11.112Z,-64
2023-09-30T22:33:41.890Z,-65
2023-09-30T22:36:10.193Z,-64
2023-09-30T22:38:38.434Z,-63
2023-09-30T22:41:08.574Z,-64
2023-09-30T22:43:36.893Z,-64
2023-09-30T22:46:05.828Z,-63
2023-09-30T22:48:34.215Z,-64
2023-09-30T22:51:03.825Z,-65
2023-09-30T22:53:32.109Z,-64
2023-09-30T22:56:00.263Z,-64
2023-09-30T22:58:31.025Z,-63
2023-09-30T23:00:59.158Z,-62
2023-09-30T23:03:28.123Z,-63
2023-09-30T23:05:56.832Z,-62
2023-09-30T23:08:26.333Z,-62
2023-09-30T23:10:54.489Z,-63
2023-09-30T23:13:22.631Z,-62
2023-09-30T23:15:50.805Z,-62
2023-09-30T23:18:19.045Z,-64
2023-09-30T23:20:47.229Z,-62
2023-09-30T23:23:15.372Z,-63
2023-09-30T23:25:45.109Z,-62
2023-09-30T23:28:13.345Z,-62
2023-09-30T23:30:41.659Z,-62
2023-09-30T23:33:10.883Z,-62
2023-09-30T23:35:39.378Z,-62
2023-09-30T23:38:08.960Z,-62
2023-09-30T23:40:39.182Z,-62
2023-09-30T23:43:09.661Z,-63
2023-09-30T23:45:38.938Z,-62
2023-09-30T23:48:09.602Z,-61
2023-09-30T23:50:41.713Z,-61
2023-09-30T23:53:10.201Z,-63
2023-09-30T23:55:39.379Z,-63
2023-09-30T23:58:11.248Z,-61
